Wetterdaten: Woche 21.11.16 - 27.11.16 (KW47)
Datum Zeit Temp. A. Feuchte A. Luftdruck Regen Wind Richtung Sonnenschein ET UV Solar Taupunkt Windchill Windben Empfang
21.11.2016 00:00 0,3 C 98 % 1011,7 hPa 0,0 l/m 1,0 km/h (0 Bft) S 0,00 h 0,000 mm 0,0 UV-I 0 W/m 0,1 C 0,3 C 2,2 km/h (1 Bft) 98,32 %
21.11.2016 01:00 -0,1 C 98 % 1011,6 hPa 0,0 l/m 1,1 km/h (0 Bft) S 0,00 h 0,000 mm 0,0 UV-I 0 W/m -0,3 C -0,1 C 2,6 km/h (1 Bft) 99,37 %
21.11.2016 02:00 0,1 C 99 % 1011,6 hPa 0,0 l/m 3,3 km/h (1 Bft) S-SW 0,00 h 0,000 mm 0,0 UV-I 0 W/m -0,1 C 0,1 C 5,3 km/h (1 Bft) 97,83 %
21.11.2016 03:00 -0,2 C 99 % 1011,3 hPa 0,0 l/m 2,6 km/h (1 Bft) SW 0,00 h 0,000 mm 0,0 UV-I 0 W/m -0,4 C -0,2 C 4,4 km/h (1 Bft) 99,61 %
21.11.2016 04:00 -0,5 C 99 % 1011,2 hPa 0,0 l/m 3,1 km/h (1 Bft) S-SW 0,00 h 0,000 mm 0,0 UV-I 0 W/m -0,6 C -0,5 C 5,0 km/h (1 Bft) 98,21 %
21.11.2016 05:00 -0,8 C 99 % 1010,9 hPa 0,0 l/m 1,5 km/h (1 Bft) S-SW 0,00 h 0,000 mm 0,0 UV-I 0 W/m -1,0 C -0,8 C 2,9 km/h (1 Bft) 99,53 %
21.11.2016 06:00 -0,7 C 99 % 1011,0 hPa 0,0 l/m 1,2 km/h (1 Bft) W 0,00 h 0,000 mm 0,0 UV-I 0 W/m -0,9 C -0,7 C 2,7 km/h (1 Bft) 97,75 %
21.11.2016 07:00 -1,0 C 99 % 1010,9 hPa 0,0 l/m 1,1 km/h (0 Bft) W-NW 0,00 h 0,000 mm 0,0 UV-I 11 W/m -1,2 C -1,0 C 2,6 km/h (1 Bft) 99,16 %
21.11.2016 08:00 -1,1 C 99 % 1010,7 hPa 0,0 l/m 1,5 km/h (1 Bft) NW 0,03 h 0,000 mm 0,0 UV-I 66 W/m -1,3 C -1,1 C 2,9 km/h (1 Bft) 97,78 %
21.11.2016 09:00 0,2 C 99 % 1010,5 hPa 0,2 l/m 0,6 km/h (0 Bft) W-NW 0,97 h 0,025 mm 0,5 UV-I 226 W/m 0,0 C 0,2 C 2,0 km/h (1 Bft) 99,34 %
21.11.2016 10:00 2,6 C 99 % 1010,1 hPa 0,0 l/m 1,8 km/h (1 Bft) O 1,00 h 0,077 mm 0,7 UV-I 320 W/m 2,5 C 2,6 C 3,7 km/h (1 Bft) 99,05 %
21.11.2016 11:00 5,8 C 97 % 1009,2 hPa 0,0 l/m 2,5 km/h (1 Bft) O-NO 1,00 h 0,127 mm 0,9 UV-I 395 W/m 5,4 C 5,8 C 4,5 km/h (1 Bft) 98,76 %
21.11.2016 12:00 8,4 C 89 % 1008,4 hPa 0,0 l/m 2,7 km/h (1 Bft) N-NO 1,00 h 0,152 mm 0,9 UV-I 389 W/m 6,6 C 8,4 C 5,3 km/h (1 Bft) 98,48 %
21.11.2016 13:00 10,6 C 84 % 1008,0 hPa 0,0 l/m 2,2 km/h (1 Bft) O-NO 1,00 h 0,178 mm 0,7 UV-I 330 W/m 8,1 C 10,6 C 4,4 km/h (1 Bft) 99,17 %
21.11.2016 14:00 11,2 C 85 % 1007,7 hPa 0,0 l/m 1,8 km/h (1 Bft) O-NO 0,87 h 0,152 mm 0,3 UV-I 166 W/m 8,7 C 11,2 C 3,7 km/h (1 Bft) 98,42 %
21.11.2016 15:00 10,7 C 87 % 1007,8 hPa 0,0 l/m 1,5 km/h (1 Bft) N-NW 0,93 h 0,076 mm 0,0 UV-I 83 W/m 8,7 C 10,7 C 3,0 km/h (1 Bft) 99,31 %
21.11.2016 16:00 8,6 C 93 % 1007,8 hPa 0,0 l/m 2,5 km/h (1 Bft) O 0,10 h 0,051 mm 0,0 UV-I 9 W/m 7,6 C 8,6 C 4,1 km/h (1 Bft) 99,67 %
21.11.2016 17:00 6,8 C 96 % 1008,1 hPa 0,0 l/m 3,0 km/h (1 Bft) S 0,00 h 0,000 mm 0,0 UV-I 0 W/m 6,3 C 6,8 C 4,9 km/h (1 Bft) 97,40 %
21.11.2016 18:00 5,9 C 97 % 1008,5 hPa 0,0 l/m 3,0 km/h (1 Bft) SW 0,00 h 0,000 mm 0,0 UV-I 0 W/m 5,5 C 5,9 C 4,7 km/h (1 Bft) 99,61 %
21.11.2016 19:00 5,3 C 98 % 1008,8 hPa 0,0 l/m 2,1 km/h (1 Bft) S-SW 0,00 h 0,000 mm 0,0 UV-I 0 W/m 4,9 C 5,3 C 3,7 km/h (1 Bft) 98,56 %
21.11.2016 20:00 4,7 C 98 % 1009,1 hPa 0,0 l/m 1,6 km/h (1 Bft) S-SW 0,00 h 0,000 mm 0,0 UV-I 0 W/m 4,4 C 4,7 C 3,4 km/h (1 Bft) 98,67 %
21.11.2016 21:00 4,3 C 98 % 1009,2 hPa 0,0 l/m 1,8 km/h (1 Bft) S-SW 0,00 h 0,000 mm 0,0 UV-I 0 W/m 4,1 C 4,3 C 3,1 km/h (1 Bft) 99,44 %
21.11.2016 22:00 4,1 C 98 % 1009,3 hPa 0,0 l/m 2,6 km/h (1 Bft) S-SW 0,00 h 0,000 mm 0,0 UV-I 0 W/m 3,8 C 4,1 C 3,9 km/h (1 Bft) 97,83 %
21.11.2016 23:00 4,0 C 99 % 1009,4 hPa 0,0 l/m 2,6 km/h (1 Bft) S-SW 0,00 h 0,000 mm 0,0 UV-I 0 W/m 3,8 C 4,0 C 4,2 km/h (1 Bft) 99,50 %
22.11.2016 00:00 3,6 C 99 % 1009,4 hPa 0,0 l/m 3,7 km/h (1 Bft) S-SW 0,00 h 0,000 mm 0,0 UV-I 0 W/m 3,3 C 3,6 C 5,2 km/h (1 Bft) 99,37 %
22.11.2016 01:00 3,4 C 99 % 1009,6 hPa 0,0 l/m 3,2 km/h (1 Bft) S-SW 0,00 h 0,000 mm 0,0 UV-I 0 W/m 3,3 C 3,4 C 4,9 km/h (1 Bft) 97,70 %
22.11.2016 02:00 3,0 C 99 % 1009,9 hPa 0,0 l/m 3,0 km/h (1 Bft) S-SW 0,00 h 0,000 mm 0,0 UV-I 0 W/m 2,8 C 3,0 C 4,4 km/h (1 Bft) 99,25 %
22.11.2016 03:00 2,8 C 99 % 1010,0 hPa 0,2 l/m 1,2 km/h (1 Bft) S-SW 0,00 h 0,000 mm 0,0 UV-I 0 W/m 2,7 C 2,8 C 2,7 km/h (1 Bft) 98,45 %
22.11.2016 04:00 3,0 C 99 % 1010,2 hPa 0,0 l/m 0,1 km/h (0 Bft) N 0,00 h 0,000 mm 0,0 UV-I 0 W/m 2,9 C 3,0 C 0,5 km/h (0 Bft) 98,97 %
22.11.2016 05:00 2,6 C 99 % 1010,6 hPa 0,0 l/m 0,8 km/h (0 Bft) S-SW 0,00 h 0,000 mm 0,0 UV-I 0 W/m 2,5 C 2,6 C 1,9 km/h (1 Bft) 99,50 %
22.11.2016 06:00 2,5 C 99 % 1011,2 hPa 0,0 l/m 1,7 km/h (1 Bft) S-SW 0,00 h 0,000 mm 0,0 UV-I 0 W/m 2,4 C 2,5 C 3,0 km/h (1 Bft) 97,64 %
22.11.2016 07:00 2,4 C 99 % 1011,8 hPa 0,0 l/m 1,3 km/h (1 Bft) S-SW 0,43 h 0,000 mm 0,0 UV-I 32 W/m 2,2 C 2,4 C 2,6 km/h (1 Bft) 99,27 %
22.11.2016 08:00 3,7 C 99 % 1012,5 hPa 0,0 l/m 1,0 km/h (0 Bft) S-SW 0,83 h 0,000 mm 0,0 UV-I 116 W/m 3,6 C 3,7 C 2,1 km/h (1 Bft) 98,59 %
22.11.2016 09:00 5,5 C 99 % 1013,0 hPa 0,0 l/m 0,6 km/h (0 Bft) S-SW 0,97 h 0,051 mm 0,5 UV-I 178 W/m 5,4 C 5,5 C 1,8 km/h (1 Bft) 99,20 %
22.11.2016 10:00 8,4 C 95 % 1013,3 hPa 0,0 l/m 3,4 km/h (1 Bft) O-NO 1,00 h 0,076 mm 0,7 UV-I 293 W/m 7,6 C 8,4 C 5,4 km/h (1 Bft) 98,31 %
22.11.2016 11:00 10,2 C 89 % 1013,3 hPa 0,0 l/m 4,5 km/h (1 Bft) NO 1,00 h 0,127 mm 0,8 UV-I 279 W/m 8,4 C 10,2 C 6,9 km/h (2 Bft) 99,43 %
22.11.2016 12:00 11,4 C 86 % 1013,1 hPa 0,0 l/m 6,2 km/h (2 Bft) O-NO 1,00 h 0,127 mm 0,8 UV-I 339 W/m 9,1 C 11,2 C 8,9 km/h (2 Bft) 98,60 %
22.11.2016 13:00 12,9 C 82 % 1012,7 hPa 0,0 l/m 7,4 km/h (2 Bft) NO 1,00 h 0,178 mm 0,7 UV-I 356 W/m 9,9 C 12,2 C 10,8 km/h (2 Bft) 98,66 %
22.11.2016 14:00 12,6 C 84 % 1012,9 hPa 0,0 l/m 3,5 km/h (1 Bft) NO 0,60 h 0,178 mm 0,0 UV-I 129 W/m 10,0 C 12,6 C 5,2 km/h (1 Bft) 98,69 %
22.11.2016 15:00 11,7 C 88 % 1013,1 hPa 0,0 l/m 2,5 km/h (1 Bft) NO 0,07 h 0,076 mm 0,0 UV-I 46 W/m 9,9 C 11,7 C 3,7 km/h (1 Bft) 98,41 %
22.11.2016 16:00 9,6 C 94 % 1013,3 hPa 0,0 l/m 0,6 km/h (0 Bft) NO 0,13 h 0,025 mm 0,0 UV-I 8 W/m 8,6 C 9,6 C 1,7 km/h (1 Bft) 97,92 %
22.11.2016 17:00 8,0 C 97 % 1013,8 hPa 0,0 l/m 0,8 km/h (0 Bft) NO 0,00 h 0,000 mm 0,0 UV-I 0 W/m 7,5 C 8,0 C 2,0 km/h (1 Bft) 99,35 %
22.11.2016 18:00 7,2 C 98 % 1014,3 hPa 0,0 l/m 0,4 km/h (0 Bft) S-SO 0,00 h 0,000 mm 0,0 UV-I 0 W/m 6,8 C 7,2 C 1,1 km/h (1 Bft) 97,68 %
22.11.2016 19:00 7,2 C 98 % 1014,5 hPa 0,0 l/m 2,2 km/h (1 Bft) O 0,00 h 0,000 mm 0,0 UV-I 0 W/m 6,9 C 7,2 C 3,4 km/h (1 Bft) 99,26 %
22.11.2016 20:00 6,3 C 98 % 1014,9 hPa 0,0 l/m 1,0 km/h (0 Bft) O 0,00 h 0,000 mm 0,0 UV-I 0 W/m 6,0 C 6,3 C 1,9 km/h (1 Bft) 98,04 %
22.11.2016 21:00 5,2 C 98 % 1015,5 hPa 0,0 l/m 2,1 km/h (1 Bft) S 0,00 h 0,000 mm 0,0 UV-I 0 W/m 5,0 C 5,2 C 3,5 km/h (1 Bft) 98,73 %
22.11.2016 22:00 4,2 C 98 % 1015,8 hPa 0,0 l/m 1,6 km/h (1 Bft) S 0,00 h 0,000 mm 0,0 UV-I 0 W/m 3,9 C 4,2 C 2,7 km/h (1 Bft) 98,68 %
22.11.2016 23:00 3,5 C 99 % 1016,3 hPa 0,2 l/m 3,8 km/h (1 Bft) S 0,00 h 0,000 mm 0,0 UV-I 0 W/m 3,3 C 3,5 C 5,0 km/h (1 Bft) 98,00 %
23.11.2016 00:00 3,1 C 99 % 1016,5 hPa 0,0 l/m 1,4 km/h (1 Bft) S-SW 0,00 h 0,000 mm 0,0 UV-I 0 W/m 2,9 C 3,1 C 2,9 km/h (1 Bft) 99,40 %
23.11.2016 01:00 2,5 C 99 % 1016,7 hPa 0,0 l/m 1,3 km/h (1 Bft) O-SO 0,00 h 0,000 mm 0,0 UV-I 0 W/m 2,4 C 2,5 C 1,9 km/h (1 Bft) 97,93 %
23.11.2016 02:00 2,3 C 99 % 1016,9 hPa 0,0 l/m 2,3 km/h (1 Bft) S 0,00 h 0,000 mm 0,0 UV-I 0 W/m 2,1 C 2,3 C 3,5 km/h (1 Bft) 99,06 %
23.11.2016 03:00 2,2 C 99 % 1017,0 hPa 0,0 l/m 0,6 km/h (0 Bft) S 0,00 h 0,000 mm 0,0 UV-I 0 W/m 2,0 C 2,2 C 1,1 km/h (1 Bft) 98,80 %
23.11.2016 04:00 2,9 C 99 % 1017,3 hPa 0,0 l/m 0,8 km/h (0 Bft) O-SO 0,00 h 0,000 mm 0,0 UV-I 0 W/m 2,8 C 2,9 C 1,7 km/h (1 Bft) 98,87 %
23.11.2016 05:00 4,7 C 99 % 1017,5 hPa 0,0 l/m 3,2 km/h (1 Bft) O 0,00 h 0,000 mm 0,0 UV-I 0 W/m 4,5 C 4,7 C 4,9 km/h (1 Bft) 98,79 %
23.11.2016 06:00 4,6 C 99 % 1017,9 hPa 0,0 l/m 2,3 km/h (1 Bft) NO 0,00 h 0,000 mm 0,0 UV-I 0 W/m 4,4 C 4,6 C 4,2 km/h (1 Bft) 98,21 %
23.11.2016 07:00 5,6 C 99 % 1018,3 hPa 0,2 l/m 6,0 km/h (2 Bft) O-NO 0,00 h 0,000 mm 0,0 UV-I 7 W/m 5,4 C 5,0 C 9,6 km/h (2 Bft) 99,30 %
23.11.2016 08:00 6,1 C 99 % 1018,7 hPa 0,0 l/m 8,8 km/h (2 Bft) O-NO 0,00 h 0,000 mm 0,0 UV-I 23 W/m 6,0 C 4,2 C 13,4 km/h (3 Bft) 98,06 %
23.11.2016 09:00 6,3 C 99 % 1019,0 hPa 0,0 l/m 8,0 km/h (2 Bft) O-NO 0,00 h 0,000 mm 0,0 UV-I 46 W/m 6,2 C 4,9 C 12,0 km/h (2 Bft) 99,17 %
23.11.2016 10:00 6,5 C 99 % 1019,1 hPa 0,0 l/m 10,6 km/h (2 Bft) O-NO 0,00 h 0,025 mm 0,0 UV-I 64 W/m 6,4 C 3,5 C 15,4 km/h (3 Bft) 97,58 %
23.11.2016 11:00 6,6 C 99 % 1018,9 hPa 0,0 l/m 9,6 km/h (2 Bft) O-NO 0,00 h 0,026 mm 0,0 UV-I 63 W/m 6,5 C 4,2 C 14,4 km/h (3 Bft) 99,11 %
23.11.2016 12:00 6,7 C 99 % 1018,6 hPa 0,0 l/m 12,1 km/h (2 Bft) O-NO 0,00 h 0,025 mm 0,0 UV-I 71 W/m 6,6 C 2,8 C 17,6 km/h (3 Bft) 98,04 %
23.11.2016 13:00 6,8 C 99 % 1018,4 hPa 0,0 l/m 12,3 km/h (3 Bft) O-NO 0,00 h 0,026 mm 0,0 UV-I 54 W/m 6,6 C 2,8 C 17,9 km/h (3 Bft) 99,08 %
23.11.2016 14:00 6,8 C 99 % 1018,3 hPa 0,0 l/m 12,7 km/h (3 Bft) O-NO 0,00 h 0,025 mm 0,0 UV-I 40 W/m 6,6 C 2,5 C 18,2 km/h (3 Bft) 98,40 %
23.11.2016 15:00 6,5 C 99 % 1018,4 hPa 0,0 l/m 18,1 km/h (3 Bft) O-NO 0,00 h 0,025 mm 0,0 UV-I 16 W/m 6,4 C -0,4 C 25,1 km/h (4 Bft) 99,57 %
23.11.2016 16:00 6,3 C 99 % 1018,5 hPa 0,0 l/m 14,6 km/h (3 Bft) O-NO 0,00 h 0,000 mm 0,0 UV-I 5 W/m 6,2 C 0,9 C 20,5 km/h (4 Bft) 98,07 %
23.11.2016 17:00 6,3 C 99 % 1018,9 hPa 0,0 l/m 14,8 km/h (3 Bft) O-NO 0,00 h 0,000 mm 0,0 UV-I 0 W/m 6,1 C 0,8 C 20,7 km/h (4 Bft) 99,33 %
23.11.2016 18:00 6,2 C 99 % 1019,3 hPa 0,0 l/m 17,0 km/h (3 Bft) O-NO 0,00 h 0,000 mm 0,0 UV-I 0 W/m 6,1 C -0,3 C 24,3 km/h (4 Bft) 98,08 %
23.11.2016 19:00 6,3 C 99 % 1019,4 hPa 0,0 l/m 14,6 km/h (3 Bft) O-NO 0,00 h 0,000 mm 0,0 UV-I 0 W/m 6,1 C 0,9 C 21,2 km/h (4 Bft) 99,58 %
23.11.2016 20:00 6,4 C 99 % 1019,4 hPa 0,0 l/m 14,7 km/h (3 Bft) O-NO 0,00 h 0,000 mm 0,0 UV-I 0 W/m 6,2 C 1,0 C 21,1 km/h (4 Bft) 97,81 %
23.11.2016 21:00 6,5 C 99 % 1019,5 hPa 0,0 l/m 9,2 km/h (2 Bft) O-NO 0,00 h 0,000 mm 0,0 UV-I 0 W/m 6,4 C 4,3 C 14,2 km/h (3 Bft) 99,55 %
23.11.2016 22:00 6,5 C 99 % 1019,3 hPa 0,0 l/m 6,8 km/h (2 Bft) O-NO 0,00 h 0,000 mm 0,0 UV-I 0 W/m 6,3 C 5,9 C 10,4 km/h (2 Bft) 98,36 %
23.11.2016 23:00 6,2 C 99 % 1019,0 hPa 0,0 l/m 7,0 km/h (2 Bft) O-NO 0,00 h 0,000 mm 0,0 UV-I 0 W/m 6,0 C 5,6 C 10,9 km/h (2 Bft) 99,09 %
24.11.2016 00:00 5,9 C 99 % 1018,8 hPa 0,0 l/m 5,6 km/h (1 Bft) NO 0,00 h 0,000 mm 0,0 UV-I 0 W/m 5,8 C 5,7 C 8,9 km/h (2 Bft) 98,15 %
24.11.2016 01:00 5,8 C 99 % 1018,7 hPa 0,0 l/m 4,6 km/h (1 Bft) NO 0,00 h 0,000 mm 0,0 UV-I 0 W/m 5,7 C 5,7 C 6,8 km/h (2 Bft) 99,35 %
24.11.2016 02:00 5,7 C 99 % 1018,5 hPa 0,0 l/m 5,9 km/h (2 Bft) NO 0,00 h 0,000 mm 0,0 UV-I 0 W/m 5,5 C 5,2 C 9,1 km/h (2 Bft) 98,33 %
24.11.2016 03:00 5,5 C 99 % 1018,3 hPa 0,0 l/m 5,7 km/h (1 Bft) O-NO 0,00 h 0,000 mm 0,0 UV-I 0 W/m 5,3 C 5,2 C 8,1 km/h (2 Bft) 99,44 %
24.11.2016 04:00 5,5 C 99 % 1018,1 hPa 0,0 l/m 5,5 km/h (1 Bft) NO 0,00 h 0,000 mm 0,0 UV-I 0 W/m 5,3 C 5,4 C 8,0 km/h (2 Bft) 98,44 %
24.11.2016 05:00 5,6 C 99 % 1017,9 hPa 0,0 l/m 5,3 km/h (1 Bft) O-NO 0,00 h 0,000 mm 0,0 UV-I 0 W/m 5,4 C 5,3 C 8,0 km/h (2 Bft) 99,25 %
24.11.2016 06:00 5,6 C 99 % 1017,9 hPa 0,0 l/m 5,7 km/h (1 Bft) NO 0,00 h 0,000 mm 0,0 UV-I 0 W/m 5,5 C 5,5 C 8,6 km/h (2 Bft) 98,44 %
24.11.2016 07:00 5,8 C 99 % 1018,1 hPa 0,0 l/m 5,6 km/h (1 Bft) NO 0,00 h 0,000 mm 0,0 UV-I 6 W/m 5,6 C 5,6 C 8,6 km/h (2 Bft) 98,79 %
24.11.2016 08:00 6,1 C 99 % 1018,6 hPa 0,0 l/m 7,0 km/h (2 Bft) O-NO 0,00 h 0,000 mm 0,0 UV-I 22 W/m 5,9 C 5,1 C 10,7 km/h (2 Bft) 98,60 %
24.11.2016 09:00 6,3 C 98 % 1018,7 hPa 0,0 l/m 10,4 km/h (2 Bft) O-NO 0,00 h 0,000 mm 0,0 UV-I 47 W/m 6,0 C 3,3 C 15,6 km/h (3 Bft) 98,88 %
24.11.2016 10:00 6,5 C 96 % 1019,0 hPa 0,0 l/m 9,2 km/h (2 Bft) NO 0,00 h 0,025 mm 0,0 UV-I 52 W/m 6,0 C 4,3 C 14,7 km/h (3 Bft) 98,77 %
24.11.2016 11:00 6,6 C 96 % 1018,9 hPa 0,0 l/m 11,6 km/h (2 Bft) NO 0,00 h 0,026 mm 0,0 UV-I 53 W/m 6,0 C 2,9 C 17,5 km/h (3 Bft) 98,43 %
24.11.2016 12:00 6,7 C 95 % 1018,7 hPa 0,0 l/m 14,5 km/h (3 Bft) O-NO 0,00 h 0,025 mm 0,0 UV-I 69 W/m 5,9 C 1,5 C 21,2 km/h (4 Bft) 98,93 %
24.11.2016 13:00 6,7 C 95 % 1018,4 hPa 0,0 l/m 17,4 km/h (3 Bft) O-NO 0,00 h 0,026 mm 0,0 UV-I 48 W/m 5,9 C 0,1 C 24,0 km/h (4 Bft) 98,52 %
24.11.2016 14:00 6,7 C 95 % 1018,2 hPa 0,0 l/m 14,7 km/h (3 Bft) O-NO 0,00 h 0,025 mm 0,0 UV-I 46 W/m 5,9 C 1,3 C 21,3 km/h (4 Bft) 98,92 %
24.11.2016 15:00 6,7 C 95 % 1017,9 hPa 0,0 l/m 14,5 km/h (3 Bft) O-NO 0,00 h 0,025 mm 0,0 UV-I 16 W/m 5,8 C 1,4 C 20,9 km/h (4 Bft) 98,22 %
24.11.2016 16:00 6,4 C 95 % 1018,0 hPa 0,0 l/m 14,0 km/h (3 Bft) O-NO 0,00 h 0,026 mm 0,0 UV-I 5 W/m 5,7 C 1,3 C 19,6 km/h (3 Bft) 98,89 %
24.11.2016 17:00 6,3 C 95 % 1018,3 hPa 0,0 l/m 11,7 km/h (2 Bft) O-NO 0,00 h 0,000 mm 0,0 UV-I 0 W/m 5,6 C 2,5 C 17,0 km/h (3 Bft) 97,76 %
24.11.2016 18:00 6,1 C 96 % 1018,7 hPa 0,0 l/m 12,2 km/h (2 Bft) O-NO 0,00 h 0,000 mm 0,0 UV-I 0 W/m 5,5 C 2,0 C 18,2 km/h (3 Bft) 99,23 %
24.11.2016 19:00 6,0 C 96 % 1018,9 hPa 0,0 l/m 10,9 km/h (2 Bft) O-NO 0,00 h 0,000 mm 0,0 UV-I 0 W/m 5,3 C 2,6 C 16,2 km/h (3 Bft) 97,61 %
24.11.2016 20:00 5,8 C 96 % 1018,9 hPa 0,0 l/m 15,1 km/h (3 Bft) O-NO 0,00 h 0,000 mm 0,0 UV-I 0 W/m 5,2 C 0,1 C 21,6 km/h (4 Bft) 98,94 %
24.11.2016 21:00 5,7 C 95 % 1019,0 hPa 0,0 l/m 14,9 km/h (3 Bft) O-NO 0,00 h 0,000 mm 0,0 UV-I 0 W/m 5,0 C 0,0 C 21,1 km/h (4 Bft) 97,62 %
24.11.2016 22:00 5,6 C 95 % 1019,0 hPa 0,0 l/m 13,1 km/h (3 Bft) O-NO 0,00 h 0,000 mm 0,0 UV-I 0 W/m 4,9 C 0,9 C 18,9 km/h (3 Bft) 98,96 %
24.11.2016 23:00 5,5 C 95 % 1019,1 hPa 0,0 l/m 14,5 km/h (3 Bft) O-NO 0,00 h 0,000 mm 0,0 UV-I 0 W/m 4,8 C -0,0 C 20,1 km/h (4 Bft) 97,21 %
25.11.2016 00:00 5,4 C 95 % 1018,8 hPa 0,0 l/m 12,5 km/h (3 Bft) O-NO 0,00 h 0,000 mm 0,0 UV-I 0 W/m 4,7 C 1,0 C 18,6 km/h (3 Bft) 99,44 %
25.11.2016 01:00 5,4 C 95 % 1018,5 hPa 0,0 l/m 12,7 km/h (3 Bft) O-NO 0,00 h 0,000 mm 0,0 UV-I 0 W/m 4,7 C 0,8 C 19,0 km/h (3 Bft) 97,47 %
25.11.2016 02:00 5,4 C 95 % 1018,3 hPa 0,0 l/m 11,0 km/h (2 Bft) O-NO 0,00 h 0,000 mm 0,0 UV-I 0 W/m 4,7 C 1,9 C 16,2 km/h (3 Bft) 98,82 %
25.11.2016 03:00 5,3 C 96 % 1017,8 hPa 0,0 l/m 10,5 km/h (2 Bft) O-NO 0,00 h 0,000 mm 0,0 UV-I 0 W/m 4,7 C 2,2 C 16,0 km/h (3 Bft) 97,44 %
25.11.2016 04:00 5,3 C 96 % 1017,5 hPa 0,0 l/m 10,2 km/h (2 Bft) NO 0,00 h 0,000 mm 0,0 UV-I 0 W/m 4,7 C 2,3 C 16,0 km/h (3 Bft) 99,20 %
25.11.2016 05:00 5,1 C 97 % 1017,8 hPa 0,0 l/m 9,0 km/h (2 Bft) O-NO 0,00 h 0,000 mm 0,0 UV-I 0 W/m 4,6 C 2,9 C 13,9 km/h (3 Bft) 97,80 %
25.11.2016 06:00 5,1 C 97 % 1017,7 hPa 0,0 l/m 7,1 km/h (2 Bft) NO 0,00 h 0,000 mm 0,0 UV-I 0 W/m 4,7 C 4,4 C 11,1 km/h (2 Bft) 98,87 %
25.11.2016 07:00 5,3 C 98 % 1017,8 hPa 0,0 l/m 8,6 km/h (2 Bft) O-NO 0,00 h 0,000 mm 0,0 UV-I 6 W/m 4,9 C 3,5 C 13,3 km/h (3 Bft) 97,23 %
25.11.2016 08:00 5,5 C 98 % 1018,0 hPa 0,0 l/m 12,7 km/h (3 Bft) O-NO 0,00 h 0,000 mm 0,0 UV-I 17 W/m 5,2 C 0,9 C 18,3 km/h (3 Bft) 99,06 %
25.11.2016 09:00 5,7 C 98 % 1018,1 hPa 0,0 l/m 12,0 km/h (2 Bft) O-NO 0,00 h 0,000 mm 0,0 UV-I 32 W/m 5,4 C 1,6 C 18,0 km/h (3 Bft) 97,52 %
25.11.2016 10:00 5,9 C 97 % 1018,1 hPa 0,0 l/m 13,3 km/h (3 Bft) O-NO 0,00 h 0,025 mm 0,0 UV-I 49 W/m 5,5 C 1,1 C 19,0 km/h (3 Bft) 99,02 %
25.11.2016 11:00 6,7 C 94 % 1017,6 hPa 0,0 l/m 16,2 km/h (3 Bft) O-NO 0,00 h 0,026 mm 0,0 UV-I 113 W/m 5,9 C 0,7 C 22,7 km/h (4 Bft) 97,91 %
25.11.2016 12:00 7,2 C 92 % 1017,4 hPa 0,0 l/m 16,5 km/h (3 Bft) O-NO 0,00 h 0,051 mm 0,3 UV-I 98 W/m 6,0 C 1,1 C 23,3 km/h (4 Bft) 99,14 %
25.11.2016 13:00 7,3 C 92 % 1017,0 hPa 0,2 l/m 16,3 km/h (3 Bft) O-NO 0,00 h 0,050 mm 0,0 UV-I 56 W/m 6,0 C 1,3 C 23,3 km/h (4 Bft) 97,36 %
25.11.2016 14:00 7,1 C 92 % 1016,8 hPa 0,0 l/m 16,8 km/h (3 Bft) O-NO 0,00 h 0,026 mm 0,0 UV-I 29 W/m 5,9 C 0,9 C 23,3 km/h (4 Bft) 99,02 %
25.11.2016 15:00 6,9 C 93 % 1016,9 hPa 0,0 l/m 16,2 km/h (3 Bft) O-NO 0,00 h 0,025 mm 0,0 UV-I 11 W/m 5,9 C 0,9 C 22,3 km/h (4 Bft) 97,59 %
25.11.2016 16:00 6,8 C 94 % 1017,2 hPa 0,0 l/m 14,5 km/h (3 Bft) O-NO 0,00 h 0,026 mm 0,0 UV-I 4 W/m 5,9 C 1,5 C 20,7 km/h (4 Bft) 99,03 %
25.11.2016 17:00 6,7 C 95 % 1017,5 hPa 0,0 l/m 15,5 km/h (3 Bft) O-NO 0,00 h 0,000 mm 0,0 UV-I 0 W/m 5,9 C 0,9 C 21,9 km/h (4 Bft) 98,49 %
25.11.2016 18:00 6,5 C 95 % 1017,8 hPa 0,0 l/m 17,1 km/h (3 Bft) O-NO 0,00 h 0,000 mm 0,0 UV-I 0 W/m 5,7 C -0,0 C 23,8 km/h (4 Bft) 99,42 %
25.11.2016 19:00 6,4 C 95 % 1017,7 hPa 0,0 l/m 17,0 km/h (3 Bft) O-NO 0,00 h 0,000 mm 0,0 UV-I 0 W/m 5,6 C -0,1 C 23,6 km/h (4 Bft) 98,62 %
25.11.2016 20:00 6,2 C 95 % 1017,6 hPa 0,0 l/m 14,3 km/h (3 Bft) O-NO 0,00 h 0,000 mm 0,0 UV-I 0 W/m 5,5 C 1,0 C 20,4 km/h (4 Bft) 99,13 %
25.11.2016 21:00 6,1 C 96 % 1017,6 hPa 0,0 l/m 13,3 km/h (3 Bft) NO 0,00 h 0,000 mm 0,0 UV-I 0 W/m 5,5 C 1,4 C 18,7 km/h (3 Bft) 98,29 %
25.11.2016 22:00 6,1 C 97 % 1017,7 hPa 0,0 l/m 10,6 km/h (2 Bft) O-NO 0,00 h 0,000 mm 0,0 UV-I 0 W/m 5,6 C 2,9 C 16,3 km/h (3 Bft) 98,99 %
25.11.2016 23:00 6,0 C 97 % 1017,8 hPa 0,0 l/m 9,1 km/h (2 Bft) O-NO 0,00 h 0,000 mm 0,0 UV-I 0 W/m 5,6 C 3,8 C 14,2 km/h (3 Bft) 98,19 %
26.11.2016 00:00 6,0 C 98 % 1017,8 hPa 0,0 l/m 8,0 km/h (2 Bft) O-NO 0,00 h 0,000 mm 0,0 UV-I 0 W/m 5,7 C 4,7 C 12,6 km/h (3 Bft) 98,63 %
26.11.2016 01:00 5,9 C 98 % 1017,8 hPa 0,0 l/m 8,0 km/h (2 Bft) O-NO 0,00 h 0,000 mm 0,0 UV-I 0 W/m 5,6 C 4,5 C 12,3 km/h (3 Bft) 98,18 %
26.11.2016 02:00 5,9 C 98 % 1017,8 hPa 0,0 l/m 9,2 km/h (2 Bft) NO 0,00 h 0,000 mm 0,0 UV-I 0 W/m 5,6 C 3,7 C 14,4 km/h (3 Bft) 98,85 %
26.11.2016 03:00 5,8 C 98 % 1017,6 hPa 0,0 l/m 8,7 km/h (2 Bft) O-NO 0,00 h 0,000 mm 0,0 UV-I 0 W/m 5,5 C 3,9 C 13,4 km/h (3 Bft) 98,87 %
26.11.2016 04:00 5,8 C 98 % 1017,4 hPa 0,0 l/m 7,6 km/h (2 Bft) NO 0,00 h 0,000 mm 0,0 UV-I 0 W/m 5,5 C 4,7 C 11,6 km/h (2 Bft) 98,90 %
26.11.2016 05:00 5,8 C 98 % 1017,3 hPa 0,0 l/m 7,9 km/h (2 Bft) O-NO 0,00 h 0,000 mm 0,0 UV-I 0 W/m 5,5 C 4,6 C 11,8 km/h (2 Bft) 98,91 %
26.11.2016 06:00 5,8 C 98 % 1017,3 hPa 0,2 l/m 6,6 km/h (2 Bft) O-NO 0,00 h 0,000 mm 0,0 UV-I 0 W/m 5,5 C 5,4 C 10,2 km/h (2 Bft) 98,61 %
26.11.2016 07:00 5,8 C 98 % 1017,1 hPa 0,0 l/m 5,6 km/h (1 Bft) O-NO 0,00 h 0,000 mm 0,0 UV-I 5 W/m 5,5 C 5,7 C 8,5 km/h (2 Bft) 99,08 %
26.11.2016 08:00 5,8 C 98 % 1017,2 hPa 0,0 l/m 4,6 km/h (1 Bft) O-NO 0,00 h 0,000 mm 0,0 UV-I 14 W/m 5,5 C 5,8 C 6,9 km/h (2 Bft) 98,29 %
26.11.2016 09:00 5,9 C 98 % 1017,1 hPa 0,0 l/m 4,4 km/h (1 Bft) O-NO 0,00 h 0,000 mm 0,0 UV-I 23 W/m 5,6 C 5,9 C 6,6 km/h (2 Bft) 98,91 %
26.11.2016 10:00 6,0 C 98 % 1016,9 hPa 0,0 l/m 2,6 km/h (1 Bft) O-NO 0,00 h 0,000 mm 0,0 UV-I 30 W/m 5,7 C 6,0 C 4,3 km/h (1 Bft) 98,15 %
26.11.2016 11:00 6,1 C 98 % 1016,6 hPa 0,2 l/m 1,6 km/h (1 Bft) O-NO 0,00 h 0,025 mm 0,0 UV-I 37 W/m 5,8 C 6,1 C 3,3 km/h (1 Bft) 99,16 %
26.11.2016 12:00 6,2 C 97 % 1016,3 hPa 0,0 l/m 0,5 km/h (0 Bft) O-NO 0,00 h 0,026 mm 0,0 UV-I 46 W/m 5,7 C 6,2 C 1,1 km/h (1 Bft) 98,08 %
26.11.2016 13:00 6,2 C 97 % 1015,9 hPa 0,0 l/m 0,1 km/h (0 Bft) N 0,00 h 0,025 mm 0,0 UV-I 30 W/m 5,8 C 6,2 C 0,5 km/h (0 Bft) 99,42 %
26.11.2016 14:00 6,1 C 98 % 1015,6 hPa 0,2 l/m 1,7 km/h (1 Bft) S-SW 0,00 h 0,000 mm 0,0 UV-I 19 W/m 5,8 C 6,1 C 3,1 km/h (1 Bft) 98,04 %
26.11.2016 15:00 5,9 C 98 % 1015,5 hPa 0,0 l/m 2,6 km/h (1 Bft) SW 0,00 h 0,000 mm 0,0 UV-I 8 W/m 5,7 C 5,9 C 4,5 km/h (1 Bft) 99,58 %
26.11.2016 16:00 5,9 C 98 % 1015,6 hPa 0,2 l/m 4,4 km/h (1 Bft) W-SW 0,00 h 0,000 mm 0,0 UV-I 0 W/m 5,6 C 5,9 C 7,0 km/h (2 Bft) 97,78 %
26.11.2016 17:00 5,8 C 98 % 1015,9 hPa 0,2 l/m 5,2 km/h (1 Bft) W 0,00 h 0,000 mm 0,0 UV-I 0 W/m 5,6 C 5,7 C 8,3 km/h (2 Bft) 99,64 %
26.11.2016 18:00 5,7 C 98 % 1016,2 hPa 0,0 l/m 8,8 km/h (2 Bft) W-SW 0,00 h 0,000 mm 0,0 UV-I 0 W/m 5,4 C 3,5 C 14,2 km/h (3 Bft) 97,92 %
26.11.2016 19:00 5,4 C 97 % 1016,5 hPa 0,0 l/m 8,0 km/h (2 Bft) SW 0,00 h 0,000 mm 0,0 UV-I 0 W/m 5,0 C 4,1 C 13,2 km/h (3 Bft) 98,93 %
26.11.2016 20:00 5,4 C 96 % 1016,5 hPa 0,0 l/m 8,8 km/h (2 Bft) W-SW 0,00 h 0,000 mm 0,0 UV-I 0 W/m 4,8 C 3,4 C 14,5 km/h (3 Bft) 97,76 %
26.11.2016 21:00 5,4 C 97 % 1016,5 hPa 0,0 l/m 7,6 km/h (2 Bft) W-SW 0,00 h 0,000 mm 0,0 UV-I 0 W/m 5,0 C 4,3 C 11,9 km/h (2 Bft) 99,44 %
26.11.2016 22:00 5,6 C 97 % 1016,4 hPa 0,0 l/m 7,4 km/h (2 Bft) W-SW 0,00 h 0,000 mm 0,0 UV-I 0 W/m 5,1 C 4,6 C 11,7 km/h (2 Bft) 98,23 %
26.11.2016 23:00 5,9 C 96 % 1016,3 hPa 0,0 l/m 9,4 km/h (2 Bft) W-SW 0,00 h 0,000 mm 0,0 UV-I 0 W/m 5,3 C 3,5 C 14,9 km/h (3 Bft) 99,65 %
27.11.2016 00:00 5,9 C 96 % 1015,8 hPa 0,0 l/m 7,4 km/h (2 Bft) W-SW 0,00 h 0,000 mm 0,0 UV-I 0 W/m 5,4 C 4,9 C 11,6 km/h (2 Bft) 98,02 %
27.11.2016 01:00 5,9 C 97 % 1015,4 hPa 0,0 l/m 8,4 km/h (2 Bft) SW 0,00 h 0,000 mm 0,0 UV-I 0 W/m 5,4 C 4,2 C 13,3 km/h (3 Bft) 99,26 %
27.11.2016 02:00 5,9 C 97 % 1015,3 hPa 0,0 l/m 5,3 km/h (1 Bft) W 0,00 h 0,000 mm 0,0 UV-I 0 W/m 5,4 C 5,5 C 8,9 km/h (2 Bft) 98,73 %
27.11.2016 03:00 5,7 C 98 % 1015,1 hPa 0,0 l/m 6,6 km/h (2 Bft) W-SW 0,00 h 0,000 mm 0,0 UV-I 0 W/m 5,4 C 5,2 C 10,8 km/h (2 Bft) 99,21 %
27.11.2016 04:00 5,8 C 97 % 1015,0 hPa 0,0 l/m 9,8 km/h (2 Bft) W-SW 0,00 h 0,000 mm 0,0 UV-I 0 W/m 5,3 C 3,1 C 14,9 km/h (3 Bft) 98,64 %
27.11.2016 05:00 5,8 C 95 % 1014,9 hPa 0,0 l/m 10,0 km/h (2 Bft) W-SW 0,00 h 0,000 mm 0,0 UV-I 0 W/m 5,0 C 3,1 C 15,7 km/h (3 Bft) 98,68 %
27.11.2016 06:00 5,8 C 94 % 1014,9 hPa 0,0 l/m 9,1 km/h (2 Bft) W-SW 0,00 h 0,000 mm 0,0 UV-I 0 W/m 4,9 C 3,6 C 14,6 km/h (3 Bft) 98,87 %
27.11.2016 07:00 5,7 C 95 % 1015,1 hPa 0,0 l/m 10,3 km/h (2 Bft) W-SW 0,00 h 0,000 mm 0,0 UV-I 6 W/m 4,9 C 2,7 C 15,6 km/h (3 Bft) 98,42 %
27.11.2016 08:00 5,7 C 95 % 1015,4 hPa 0,0 l/m 10,0 km/h (2 Bft) SW 0,00 h 0,000 mm 0,0 UV-I 26 W/m 4,9 C 3,0 C 15,5 km/h (3 Bft) 98,45 %
27.11.2016 09:00 6,3 C 94 % 1015,4 hPa 0,0 l/m 11,2 km/h (2 Bft) W-SW 0,17 h 0,025 mm 0,0 UV-I 93 W/m 5,3 C 2,7 C 17,5 km/h (3 Bft) 98,08 %
27.11.2016 10:00 6,5 C 92 % 1015,5 hPa 0,0 l/m 12,1 km/h (2 Bft) W-SW 0,00 h 0,051 mm 0,0 UV-I 63 W/m 5,4 C 2,5 C 18,0 km/h (3 Bft) 99,56 %
27.11.2016 11:00 6,5 C 88 % 1015,1 hPa 0,0 l/m 11,9 km/h (2 Bft) W 0,00 h 0,026 mm 0,0 UV-I 35 W/m 4,7 C 2,6 C 19,1 km/h (3 Bft) 98,09 %
27.11.2016 12:00 6,3 C 88 % 1014,9 hPa 0,0 l/m 11,1 km/h (2 Bft) W 0,00 h 0,025 mm 0,0 UV-I 40 W/m 4,4 C 2,9 C 17,7 km/h (3 Bft) 99,05 %
27.11.2016 13:00 6,6 C 85 % 1014,5 hPa 0,0 l/m 10,8 km/h (2 Bft) W-SW 0,00 h 0,025 mm 0,4 UV-I 71 W/m 4,4 C 3,5 C 16,9 km/h (3 Bft) 97,78 %
27.11.2016 14:00 6,5 C 84 % 1014,3 hPa 0,2 l/m 12,5 km/h (3 Bft) W-SW 0,00 h 0,051 mm 0,0 UV-I 54 W/m 4,0 C 2,3 C 19,8 km/h (3 Bft) 99,16 %
27.11.2016 15:00 6,3 C 85 % 1014,5 hPa 0,0 l/m 9,1 km/h (2 Bft) W 0,00 h 0,051 mm 0,0 UV-I 12 W/m 3,9 C 4,2 C 14,3 km/h (3 Bft) 97,39 %
27.11.2016 16:00 5,8 C 90 % 1014,9 hPa 0,0 l/m 6,4 km/h (2 Bft) W 0,00 h 0,025 mm 0,0 UV-I 4 W/m 4,2 C 5,2 C 13,1 km/h (3 Bft) 99,10 %
27.11.2016 17:00 5,1 C 93 % 1015,4 hPa 0,8 l/m 6,5 km/h (2 Bft) W 0,00 h 0,000 mm 0,0 UV-I 0 W/m 4,1 C 4,4 C 13,2 km/h (3 Bft) 97,96 %
27.11.2016 18:00 4,4 C 94 % 1015,9 hPa 0,0 l/m 7,2 km/h (2 Bft) W 0,00 h 0,000 mm 0,0 UV-I 0 W/m 3,5 C 2,9 C 11,9 km/h (2 Bft) 99,54 %
27.11.2016 19:00 4,2 C 94 % 1016,4 hPa 0,0 l/m 5,5 km/h (1 Bft) W-SW 0,00 h 0,000 mm 0,0 UV-I 0 W/m 3,3 C 4,1 C 8,6 km/h (2 Bft) 98,13 %
27.11.2016 20:00 4,2 C 94 % 1016,8 hPa 0,0 l/m 6,6 km/h (2 Bft) W-SW 0,00 h 0,000 mm 0,0 UV-I 0 W/m 3,3 C 3,7 C 10,5 km/h (2 Bft) 99,70 %
27.11.2016 21:00 4,1 C 94 % 1017,2 hPa 0,0 l/m 8,2 km/h (2 Bft) W-SW 0,00 h 0,000 mm 0,0 UV-I 0 W/m 3,2 C 2,5 C 12,7 km/h (3 Bft) 97,87 %
27.11.2016 22:00 3,8 C 94 % 1017,4 hPa 0,0 l/m 6,3 km/h (2 Bft) W 0,00 h 0,000 mm 0,0 UV-I 0 W/m 2,9 C 3,4 C 10,7 km/h (2 Bft) 99,09 %
27.11.2016 23:00 3,2 C 94 % 1018,1 hPa 0,0 l/m 3,3 km/h (1 Bft) W-NW 0,00 h 0,000 mm 0,0 UV-I 0 W/m 2,3 C 3,1 C 7,3 km/h (2 Bft) 97,84 %
Min-Datum _ 21.11.16 22.11.16 21.11.16 - 21.11.16 - - - - - 21.11.16 23.11.16 21.11.16 26.11.16
_ Min-Zeit 08:10 13:34 14:32 - 00:18 - - - - - 08:26 18:08 00:18 10:04
Minimum _ -1,3 C 80 % 1007,5 hPa - 0,0 km/h (0 Bft) - - - - - -1,5 C -2,7 C 0,0 km/h (0 Bft) 88,64 %
Max-Datum _ 22.11.16 21.11.16 23.11.16 27.11.16 24.11.16 - 21.11.16 21.11.16 21.11.16 22.11.16 22.11.16 22.11.16 24.11.16 21.11.16
_ Max-Zeit 13:34 00:20 21:20 17:42 13:16 - 11:15 13:00 11:24 12:36 13:26 13:52 15:22 00:04
Maximum _ 13,3 C 99 % 1019,6 hPa 0,8 l/m 23,4 km/h
O-NO (4 Bft)
- 0,08 h 0,178 mm 0,9 UV-I 452 W/m 10,3 C 13,2 C 32,2 km/h
O-NO (5 Bft)
100,00 %
Durchschnitt _ 5,6 C 96 % 1015,6 hPa #3,0 l/m 7,3 km/h (2 Bft) O-NO #14:06 h #2,590 mm 0,6 UV-I 81 W/m 5,0 C 3,7 C 11,1 km/h (2 Bft) 98,64 %